createdAt,value
2018-08-31T00:05:56.742Z,5.00
2018-08-31T00:08:47.551Z,5.30
2018-08-31T00:11:22.016Z,5.00
2018-08-31T00:13:52.404Z,5.07
2018-08-31T00:16:26.907Z,5.10
2018-08-31T00:18:59.332Z,5.50
2018-08-31T00:21:30.474Z,5.07
2018-08-31T00:24:36.746Z,4.90
2018-08-31T00:27:43.113Z,4.57
2018-08-31T00:33:58.655Z,5.13
2018-08-31T00:36:29.055Z,5.43
2018-08-31T00:38:59.702Z,6.50
2018-08-31T00:41:31.125Z,6.40
2018-08-31T00:44:01.534Z,5.80
2018-08-31T00:46:31.936Z,5.27
2018-08-31T00:49:21.396Z,5.90
2018-08-31T00:51:51.804Z,6.73
2018-08-31T00:54:22.206Z,6.00
2018-08-31T00:56:52.631Z,5.07
2018-08-31T00:59:23.028Z,5.37
2018-08-31T01:01:53.414Z,4.97
2018-08-31T01:04:23.843Z,5.20
2018-08-31T01:06:54.211Z,5.27
2018-08-31T01:09:24.609Z,5.50
2018-08-31T01:11:55.034Z,5.40
2018-08-31T01:14:26.473Z,5.37
2018-08-31T01:16:57.617Z,4.90
2018-08-31T01:19:28.027Z,5.37
2018-08-31T01:21:59.184Z,5.50
2018-08-31T01:24:30.345Z,5.17
2018-08-31T01:27:00.771Z,5.30
2018-08-31T01:29:31.183Z,4.70
2018-08-31T01:32:02.344Z,4.80
2018-08-31T01:34:32.779Z,4.93
2018-08-31T01:37:03.155Z,5.90
2018-08-31T01:39:33.820Z,5.00
2018-08-31T01:42:04.245Z,5.53
2018-08-31T01:44:35.603Z,6.13
2018-08-31T01:47:06.007Z,5.80
2018-08-31T01:49:38.218Z,6.70
2018-08-31T01:52:10.640Z,6.00
2018-08-31T01:54:43.114Z,6.47
2018-08-31T01:57:13.509Z,6.23
2018-08-31T02:00:05.366Z,6.10
2018-08-31T02:02:35.750Z,6.43
2018-08-31T02:05:10.249Z,5.93
2018-08-31T02:07:40.682Z,6.60
2018-08-31T02:10:11.098Z,6.13
2018-08-31T02:12:42.291Z,6.00
2018-08-31T02:15:33.103Z,6.57
2018-08-31T02:18:03.489Z,6.60
2018-08-31T02:20:33.873Z,5.60
2018-08-31T02:23:04.295Z,5.40
2018-08-31T02:25:34.621Z,5.63
2018-08-31T02:28:05.003Z,5.67
2018-08-31T02:30:36.090Z,6.23
2018-08-31T02:33:06.406Z,5.60
2018-08-31T02:35:36.802Z,6.00
2018-08-31T02:38:09.270Z,5.70
2018-08-31T02:40:39.674Z,5.90
2018-08-31T02:43:11.030Z,5.77
2018-08-31T02:45:41.464Z,5.07
2018-08-31T02:48:11.850Z,4.90
2018-08-31T02:50:42.234Z,5.17
2018-08-31T02:53:12.817Z,5.13
2018-08-31T02:55:43.216Z,4.87
2018-08-31T02:58:35.890Z,5.13
2018-08-31T03:01:06.283Z,4.90
2018-08-31T03:03:36.668Z,4.77
2018-08-31T03:06:13.335Z,4.70
2018-08-31T03:08:44.505Z,4.70
2018-08-31T03:11:14.894Z,5.30
2018-08-31T03:13:46.076Z,4.97
2018-08-31T03:16:16.452Z,4.67
2018-08-31T03:18:46.780Z,4.80
2018-08-31T03:21:17.237Z,5.00
2018-08-31T03:23:47.596Z,4.83
2018-08-31T03:26:17.987Z,4.80
2018-08-31T03:28:49.173Z,4.60
2018-08-31T03:31:39.969Z,5.20
2018-08-31T03:34:12.421Z,4.80
2018-08-31T03:36:42.857Z,4.30
2018-08-31T03:39:16.017Z,5.07
2018-08-31T03:41:46.372Z,4.73
2018-08-31T03:44:16.777Z,5.30
2018-08-31T03:46:47.913Z,4.67
2018-08-31T03:49:18.333Z,4.37
2018-08-31T03:51:48.740Z,4.50
2018-08-31T03:54:19.114Z,4.23
2018-08-31T03:56:49.749Z,4.47
2018-08-31T03:59:20.138Z,4.73
2018-08-31T04:01:50.464Z,4.90
2018-08-31T04:04:20.891Z,4.93
2018-08-31T04:06:51.214Z,4.93
2018-08-31T04:09:21.610Z,4.87
2018-08-31T04:11:52.790Z,4.73
2018-08-31T04:14:23.194Z,4.90
2018-08-31T04:17:12.975Z,5.40
2018-08-31T04:19:43.365Z,5.17
2018-08-31T04:22:13.739Z,5.40
2018-08-31T04:24:44.176Z,5.10
2018-08-31T04:27:14.573Z,5.50
2018-08-31T04:29:50.091Z,5.23
2018-08-31T04:32:22.221Z,4.87
2018-08-31T04:34:52.604Z,4.63
2018-08-31T04:37:24.018Z,4.63
2018-08-31T04:39:54.441Z,4.23
2018-08-31T04:42:25.587Z,4.87
2018-08-31T04:47:47.492Z,4.30
2018-08-31T04:50:18.945Z,4.67
2018-08-31T04:52:49.277Z,4.47
2018-08-31T04:55:20.440Z,4.60
2018-08-31T04:57:50.818Z,4.07
2018-08-31T05:00:21.209Z,4.33
2018-08-31T05:02:53.425Z,4.43
2018-08-31T05:05:24.834Z,4.53
2018-08-31T05:07:56.193Z,3.93
2018-08-31T05:10:26.619Z,4.67
2018-08-31T05:12:57.021Z,4.47
2018-08-31T05:15:28.174Z,4.20
2018-08-31T05:17:59.390Z,4.20
2018-08-31T05:20:29.779Z,4.50
2018-08-31T05:23:00.197Z,4.10
2018-08-31T05:25:30.577Z,3.93
2018-08-31T05:28:00.975Z,4.03
2018-08-31T05:30:33.403Z,4.30
2018-08-31T05:33:04.569Z,4.53
2018-08-31T05:35:34.894Z,4.40
2018-08-31T05:38:05.288Z,4.70
2018-08-31T05:40:35.724Z,4.80
2018-08-31T05:43:06.891Z,4.57
2018-08-31T05:45:37.301Z,4.20
2018-08-31T05:48:08.496Z,4.47
2018-08-31T05:51:00.031Z,4.20
2018-08-31T05:53:30.528Z,4.70
2018-08-31T05:56:00.834Z,4.63
2018-08-31T05:58:31.216Z,4.50
2018-08-31T06:01:01.649Z,4.60
2018-08-31T06:03:32.045Z,4.10
2018-08-31T06:06:05.181Z,4.10
2018-08-31T06:08:35.604Z,4.17
2018-08-31T06:11:06.006Z,4.10
2018-08-31T06:13:36.393Z,4.60
2018-08-31T06:16:06.749Z,4.60
2018-08-31T06:18:56.513Z,4.63
2018-08-31T06:21:27.958Z,4.60
2018-08-31T06:23:58.339Z,4.27
2018-08-31T06:26:28.662Z,4.30
2018-08-31T06:28:59.055Z,4.37
2018-08-31T06:31:48.810Z,4.30
2018-08-31T06:34:19.230Z,4.70
2018-08-31T06:36:49.612Z,4.40
2018-08-31T06:39:20.015Z,4.37
2018-08-31T06:41:54.516Z,4.20
2018-08-31T06:44:24.890Z,4.67
2018-08-31T06:46:55.221Z,4.53
2018-08-31T06:49:25.587Z,4.80
2018-08-31T06:51:55.980Z,4.43
2018-08-31T06:54:26.364Z,5.00
2018-08-31T06:56:57.802Z,4.90
2018-08-31T06:59:28.184Z,4.60
2018-08-31T07:01:58.565Z,4.50
2018-08-31T07:04:28.950Z,4.40
2018-08-31T07:07:00.794Z,4.70
2018-08-31T07:09:31.134Z,5.17
2018-08-31T07:12:02.263Z,5.00
2018-08-31T07:14:32.643Z,4.73
2018-08-31T07:17:04.053Z,4.20
2018-08-31T07:19:35.228Z,4.40
2018-08-31T07:22:05.615Z,4.17
2018-08-31T07:24:36.016Z,4.10
2018-08-31T07:27:06.368Z,4.70
2018-08-31T07:29:36.744Z,4.50
2018-08-31T07:32:09.229Z,4.13
2018-08-31T07:34:39.582Z,4.33
2018-08-31T07:37:09.983Z,3.97
2018-08-31T07:39:47.719Z,4.40
2018-08-31T07:42:18.166Z,4.40
2018-08-31T07:44:48.429Z,3.80
2018-08-31T07:47:20.872Z,3.77
2018-08-31T07:49:52.915Z,3.87
2018-08-31T07:52:23.301Z,3.77
2018-08-31T07:54:53.675Z,3.37
2018-08-31T07:57:24.070Z,3.20
2018-08-31T07:59:54.462Z,3.37
2018-08-31T08:02:24.853Z,3.40
2018-08-31T08:04:56.019Z,3.37
2018-08-31T08:07:26.544Z,3.50
2018-08-31T08:09:56.832Z,3.30
2018-08-31T08:12:27.229Z,3.10
2018-08-31T08:14:58.648Z,3.63
2018-08-31T08:17:29.070Z,3.87
2018-08-31T08:19:59.473Z,3.40
2018-08-31T08:22:29.858Z,3.80
2018-08-31T08:25:07.433Z,4.10
2018-08-31T08:27:37.813Z,3.23
2018-08-31T08:30:08.201Z,3.50
2018-08-31T08:32:38.538Z,3.23
2018-08-31T08:35:30.337Z,3.27
2018-08-31T08:38:00.756Z,3.50
2018-08-31T08:40:31.623Z,2.97
2018-08-31T08:43:09.464Z,3.07
2018-08-31T08:45:39.847Z,3.50
2018-08-31T08:48:11.314Z,3.50
2018-08-31T08:50:42.431Z,3.60
2018-08-31T08:53:12.816Z,3.17
2018-08-31T08:55:43.472Z,2.70
2018-08-31T08:58:14.770Z,2.83
2018-08-31T09:03:31.316Z,3.30
2018-08-31T09:06:01.698Z,3.47
2018-08-31T09:08:32.084Z,3.57
2018-08-31T09:11:03.271Z,3.17
2018-08-31T09:13:39.731Z,2.97
2018-08-31T09:16:10.172Z,3.43
2018-08-31T09:18:45.686Z,3.47
2018-08-31T09:21:18.914Z,3.53
2018-08-31T09:23:56.398Z,3.53
2018-08-31T09:26:26.817Z,3.17
2018-08-31T09:28:57.207Z,3.50
2018-08-31T09:31:27.583Z,3.63
2018-08-31T09:34:05.182Z,3.40
2018-08-31T09:36:54.106Z,3.40
2018-08-31T09:39:24.742Z,3.77
2018-08-31T09:41:57.944Z,4.77
2018-08-31T09:44:28.341Z,3.30
2018-08-31T09:46:59.606Z,3.17
2018-08-31T09:49:29.997Z,3.90
2018-08-31T09:52:07.716Z,3.53
2018-08-31T09:54:38.880Z,3.23
2018-08-31T09:57:10.026Z,2.83
2018-08-31T09:59:40.448Z,3.70
2018-08-31T10:02:10.847Z,3.37
2018-08-31T10:04:41.245Z,3.53
2018-08-31T10:07:11.587Z,3.60
2018-08-31T10:09:41.978Z,3.60
2018-08-31T10:12:14.408Z,3.53
2018-08-31T10:14:45.580Z,3.03
2018-08-31T10:17:15.962Z,2.97
2018-08-31T10:19:46.354Z,3.27
2018-08-31T10:22:23.768Z,3.30
2018-08-31T10:24:55.181Z,3.30
2018-08-31T10:27:25.801Z,3.00
2018-08-31T10:29:56.231Z,3.57
2018-08-31T10:32:26.609Z,3.20
2018-08-31T10:34:57.292Z,3.40
2018-08-31T10:37:27.708Z,3.10
2018-08-31T10:39:58.826Z,3.30
2018-08-31T10:42:29.225Z,3.70
2018-08-31T10:45:18.739Z,3.40
2018-08-31T10:47:49.120Z,3.90
2018-08-31T10:50:22.258Z,3.87
2018-08-31T10:52:53.428Z,3.33
2018-08-31T10:55:23.828Z,3.40
2018-08-31T10:57:54.985Z,3.13
2018-08-31T11:00:26.153Z,3.40
2018-08-31T11:02:56.543Z,3.67
2018-08-31T11:05:27.633Z,3.43
2018-08-31T11:07:58.062Z,3.80
2018-08-31T11:10:31.522Z,3.63
2018-08-31T11:13:02.778Z,3.37
2018-08-31T11:15:37.224Z,3.80
2018-08-31T11:18:09.693Z,3.67
2018-08-31T11:20:40.066Z,3.67
2018-08-31T11:23:10.483Z,3.87
2018-08-31T11:25:40.811Z,3.27
2018-08-31T11:28:11.208Z,3.63
2018-08-31T11:30:43.604Z,3.40
2018-08-31T11:33:15.058Z,3.90
2018-08-31T11:35:47.148Z,3.63
2018-08-31T11:38:17.659Z,3.70
2018-08-31T11:40:48.046Z,3.77
2018-08-31T11:43:18.418Z,3.67
2018-08-31T11:45:48.769Z,3.67
2018-08-31T11:48:19.913Z,3.70
2018-08-31T11:50:51.057Z,3.40
2018-08-31T11:53:21.495Z,3.63
2018-08-31T11:55:51.874Z,4.27
2018-08-31T11:58:22.273Z,3.73
2018-08-31T12:00:52.716Z,3.23
2018-08-31T12:03:23.002Z,3.73
2018-08-31T12:05:53.405Z,3.57
2018-08-31T12:08:23.833Z,3.60
2018-08-31T12:10:54.236Z,3.57
2018-08-31T12:13:24.630Z,3.43
2018-08-31T12:15:55.089Z,4.13
2018-08-31T12:18:25.474Z,3.60
2018-08-31T12:20:55.847Z,3.90
2018-08-31T12:23:26.206Z,3.60
2018-08-31T12:25:57.436Z,4.57
2018-08-31T12:28:27.761Z,3.67
2018-08-31T12:30:58.374Z,3.43
2018-08-31T12:33:31.600Z,4.27
2018-08-31T12:36:02.774Z,4.03
2018-08-31T12:38:33.195Z,3.73
2018-08-31T12:41:03.595Z,3.70
2018-08-31T12:43:34.003Z,3.93
2018-08-31T12:46:04.399Z,4.30
2018-08-31T12:48:42.093Z,3.70
2018-08-31T12:51:17.618Z,4.00
2018-08-31T12:56:38.505Z,3.47
2018-08-31T12:59:09.917Z,3.43
2018-08-31T13:01:40.298Z,4.37
2018-08-31T13:04:10.657Z,4.37
2018-08-31T13:06:41.036Z,3.87
2018-08-31T13:09:11.443Z,3.87
2018-08-31T13:11:41.865Z,3.77
2018-08-31T13:14:12.259Z,3.80
2018-08-31T13:16:42.656Z,3.40
2018-08-31T13:19:13.847Z,4.00
2018-08-31T13:21:44.234Z,3.97
2018-08-31T13:24:15.383Z,3.70
2018-08-31T13:26:46.506Z,3.60
2018-08-31T13:29:17.233Z,3.73
2018-08-31T13:31:53.449Z,4.00
2018-08-31T13:34:23.838Z,3.80
2018-08-31T13:36:54.234Z,4.13
2018-08-31T13:39:24.635Z,3.90
2018-08-31T13:41:55.019Z,4.20
2018-08-31T13:44:26.176Z,4.00
2018-08-31T13:46:57.356Z,4.10
2018-08-31T13:49:33.902Z,3.97
2018-08-31T13:52:05.335Z,3.90
2018-08-31T13:54:36.420Z,3.70
2018-08-31T13:57:06.814Z,3.43
2018-08-31T13:59:40.120Z,4.10
2018-08-31T14:02:10.445Z,4.00
2018-08-31T14:04:40.833Z,4.10
2018-08-31T14:07:11.399Z,3.63
2018-08-31T14:10:00.831Z,3.90
2018-08-31T14:12:31.226Z,3.70
2018-08-31T14:15:04.688Z,4.37
2018-08-31T14:17:35.892Z,3.77
2018-08-31T14:20:08.325Z,4.17
2018-08-31T14:22:38.722Z,4.17
2018-08-31T14:25:09.914Z,5.33
2018-08-31T14:27:47.151Z,4.23
2018-08-31T14:30:18.328Z,4.37
2018-08-31T14:32:48.711Z,4.63
2018-08-31T14:35:19.114Z,4.63
2018-08-31T14:37:49.515Z,4.03
2018-08-31T14:40:19.899Z,4.27
2018-08-31T14:42:50.276Z,3.90
2018-08-31T14:45:22.739Z,4.00
2018-08-31T14:47:55.102Z,4.13
2018-08-31T14:50:25.498Z,3.80
2018-08-31T14:52:55.826Z,4.30
2018-08-31T14:55:26.229Z,3.77
2018-08-31T14:57:56.631Z,3.70
2018-08-31T15:00:32.164Z,4.10
2018-08-31T15:03:02.554Z,4.17
2018-08-31T15:05:32.980Z,4.30
2018-08-31T15:08:22.684Z,4.00
2018-08-31T15:10:53.827Z,3.87
2018-08-31T15:13:24.967Z,3.87
2018-08-31T15:15:56.137Z,3.73
2018-08-31T15:18:26.465Z,3.70
2018-08-31T15:20:56.867Z,3.80
2018-08-31T15:23:30.588Z,3.77
2018-08-31T15:26:08.220Z,3.47
2018-08-31T15:28:44.758Z,4.10
2018-08-31T15:31:15.175Z,3.60
2018-08-31T15:33:45.527Z,3.57
2018-08-31T15:36:15.934Z,3.57
2018-08-31T15:38:46.320Z,3.90
2018-08-31T15:41:16.708Z,4.00
2018-08-31T15:43:47.409Z,3.63
2018-08-31T15:46:17.800Z,3.50
2018-08-31T15:48:50.399Z,3.87
2018-08-31T15:51:21.590Z,3.87
2018-08-31T15:53:51.916Z,4.10
2018-08-31T15:56:32.235Z,3.80
2018-08-31T15:59:02.629Z,3.80
2018-08-31T16:01:33.022Z,3.50
2018-08-31T16:04:03.436Z,3.93
2018-08-31T16:06:33.839Z,4.03
2018-08-31T16:11:49.130Z,3.80
2018-08-31T16:14:20.275Z,4.82
2018-08-31T16:16:51.417Z,3.73
2018-08-31T16:19:22.531Z,4.20
2018-08-31T16:21:52.911Z,4.03
2018-08-31T16:24:23.306Z,4.13
2018-08-31T16:26:53.725Z,4.13
2018-08-31T16:29:24.108Z,3.57
2018-08-31T16:31:56.545Z,3.80
2018-08-31T16:34:27.740Z,3.80
2018-08-31T16:37:18.273Z,3.90
2018-08-31T16:39:51.342Z,3.77
2018-08-31T16:42:21.737Z,4.00
2018-08-31T16:44:52.115Z,4.10
2018-08-31T16:47:22.687Z,3.90
2018-08-31T16:49:55.891Z,4.07
2018-08-31T16:52:26.294Z,3.53
2018-08-31T16:54:56.716Z,91.17
2018-08-31T16:57:28.522Z,121.43
2018-08-31T17:00:18.483Z,54.77
2018-08-31T17:02:48.734Z,49.93
2018-08-31T17:05:38.531Z,18.10
2018-08-31T17:08:08.960Z,13.90
2018-08-31T17:10:39.342Z,11.00
2018-08-31T17:13:09.762Z,6.47
2018-08-31T17:15:41.168Z,6.63
2018-08-31T17:18:11.539Z,5.83
2018-08-31T17:20:41.975Z,20.37
2018-08-31T17:23:13.390Z,5.13
2018-08-31T17:25:43.772Z,6.60
2018-08-31T17:28:34.330Z,6.50
2018-08-31T17:31:05.487Z,4.17
2018-08-31T17:33:47.781Z,7.23
2018-08-31T17:36:18.878Z,4.50
2018-08-31T17:38:49.200Z,4.47
2018-08-31T17:41:19.628Z,4.53
2018-08-31T17:43:50.670Z,11.77
2018-08-31T17:46:21.266Z,10.17
2018-08-31T17:48:51.672Z,3.67
2018-08-31T17:51:22.823Z,45.80
2018-08-31T17:53:53.217Z,10.20
2018-08-31T17:56:23.705Z,10.07
2018-08-31T17:58:54.018Z,11.93
2018-08-31T18:01:24.398Z,7.37
2018-08-31T18:03:54.826Z,8.40
2018-08-31T18:06:25.398Z,6.63
2018-08-31T18:08:55.798Z,4.77
2018-08-31T18:11:26.959Z,4.80
2018-08-31T18:14:00.008Z,3.93
2018-08-31T18:16:30.515Z,3.80
2018-08-31T18:19:01.859Z,3.60
2018-08-31T18:21:38.382Z,3.73
2018-08-31T18:24:09.567Z,3.87
2018-08-31T18:26:39.957Z,3.83
2018-08-31T18:29:10.345Z,3.33
2018-08-31T18:31:40.782Z,3.50
2018-08-31T18:34:11.192Z,3.17
2018-08-31T18:36:41.585Z,3.33
2018-08-31T18:39:17.702Z,3.93
2018-08-31T18:41:48.107Z,3.37
2018-08-31T18:44:24.655Z,3.50
2018-08-31T18:46:55.008Z,3.83
2018-08-31T18:49:30.530Z,4.40
2018-08-31T18:52:04.006Z,3.43
2018-08-31T18:54:35.093Z,3.27
2018-08-31T18:57:10.553Z,3.83
2018-08-31T18:59:40.944Z,3.90
2018-08-31T19:02:11.350Z,3.50
2018-08-31T19:04:42.543Z,3.80
2018-08-31T19:07:12.875Z,3.60
2018-08-31T19:09:43.280Z,4.23
2018-08-31T19:12:14.819Z,3.33
2018-08-31T19:14:45.209Z,4.00
2018-08-31T19:17:18.249Z,4.03
2018-08-31T19:19:48.606Z,4.00
2018-08-31T19:22:18.999Z,3.23
2018-08-31T19:24:49.380Z,4.23
2018-08-31T19:27:20.555Z,4.07
2018-08-31T19:29:50.984Z,4.13
2018-08-31T19:35:10.208Z,3.70
2018-08-31T19:37:40.648Z,3.43
2018-08-31T19:40:13.854Z,3.27
2018-08-31T19:42:44.382Z,3.57
2018-08-31T19:45:14.960Z,3.43
2018-08-31T19:47:45.357Z,3.70
2018-08-31T19:50:16.473Z,3.90
2018-08-31T19:52:47.048Z,3.90
2018-08-31T19:55:17.447Z,3.80
2018-08-31T19:57:48.634Z,3.50
2018-08-31T20:00:21.097Z,3.30
2018-08-31T20:02:51.485Z,3.47
2018-08-31T20:05:22.858Z,3.50
2018-08-31T20:07:53.237Z,4.10
2018-08-31T20:10:23.637Z,3.40
2018-08-31T20:12:58.134Z,3.83
2018-08-31T20:15:28.531Z,3.53
2018-08-31T20:18:01.689Z,3.60
2018-08-31T20:20:32.104Z,3.83
2018-08-31T20:23:03.649Z,4.20
2018-08-31T20:25:33.984Z,3.73
2018-08-31T20:28:07.474Z,3.57
2018-08-31T20:30:37.897Z,3.83
2018-08-31T20:33:08.937Z,3.77
2018-08-31T20:35:40.038Z,3.73
2018-08-31T20:38:10.424Z,3.77
2018-08-31T20:40:44.937Z,3.17
2018-08-31T20:43:15.389Z,3.50
2018-08-31T20:45:46.424Z,4.33
2018-08-31T20:48:22.996Z,3.50
2018-08-31T20:50:57.493Z,4.03
2018-08-31T20:53:27.897Z,3.80
2018-08-31T20:55:58.527Z,3.23
2018-08-31T20:58:29.702Z,3.90
2018-08-31T21:01:00.095Z,3.40
2018-08-31T21:03:31.273Z,4.03
2018-08-31T21:06:01.670Z,3.50
2018-08-31T21:08:32.816Z,3.57
2018-08-31T21:11:06.645Z,3.57
2018-08-31T21:13:37.047Z,3.80
2018-08-31T21:16:08.201Z,3.87
2018-08-31T21:18:38.622Z,3.60
2018-08-31T21:21:09.961Z,3.53
2018-08-31T21:23:40.270Z,3.23
2018-08-31T21:26:10.638Z,3.60
2018-08-31T21:28:40.958Z,3.43
2018-08-31T21:31:11.350Z,3.50
2018-08-31T21:33:41.855Z,3.40
2018-08-31T21:36:12.179Z,3.70
2018-08-31T21:38:45.648Z,3.50
2018-08-31T21:41:16.055Z,3.70
2018-08-31T21:43:49.246Z,3.40
2018-08-31T21:46:20.350Z,3.43
2018-08-31T21:48:50.752Z,3.53
2018-08-31T21:51:23.123Z,3.40
2018-08-31T21:53:53.499Z,3.30
2018-08-31T21:56:24.962Z,3.90
2018-08-31T21:58:55.282Z,3.87
2018-08-31T22:01:25.665Z,3.40
2018-08-31T22:03:56.073Z,3.37
2018-08-31T22:06:26.423Z,3.20
2018-08-31T22:08:56.814Z,3.80
2018-08-31T22:11:27.224Z,3.43
2018-08-31T22:14:01.112Z,3.60
2018-08-31T22:16:32.525Z,3.60
2018-08-31T22:19:02.942Z,3.60
2018-08-31T22:21:33.322Z,3.53
2018-08-31T22:24:03.721Z,3.60
2018-08-31T22:26:34.158Z,3.60
2018-08-31T22:29:04.569Z,3.53
2018-08-31T22:31:34.984Z,3.50
2018-08-31T22:34:06.609Z,3.63
2018-08-31T22:36:37.004Z,3.67
2018-08-31T22:39:07.405Z,3.80
2018-08-31T22:41:37.819Z,3.90
2018-08-31T22:44:10.269Z,4.07
2018-08-31T22:46:40.667Z,3.70
2018-08-31T22:49:11.322Z,3.70
2018-08-31T22:51:41.719Z,3.80
2018-08-31T22:54:12.040Z,3.20
2018-08-31T22:56:42.465Z,3.93
2018-08-31T22:59:12.827Z,3.50
2018-08-31T23:01:43.228Z,3.30
2018-08-31T23:04:14.374Z,3.30
2018-08-31T23:06:44.764Z,3.43
2018-08-31T23:09:37.368Z,3.60
2018-08-31T23:12:08.523Z,3.40
2018-08-31T23:14:38.923Z,3.57
2018-08-31T23:17:10.107Z,3.33
2018-08-31T23:19:40.719Z,3.13
2018-08-31T23:22:11.875Z,3.30
2018-08-31T23:24:42.291Z,2.83
2018-08-31T23:27:12.693Z,3.43
2018-08-31T23:29:43.085Z,3.07
2018-08-31T23:32:18.615Z,3.20
2018-08-31T23:34:48.992Z,3.23
2018-08-31T23:37:19.384Z,3.57
2018-08-31T23:39:54.902Z,3.50
2018-08-31T23:42:25.292Z,3.17
2018-08-31T23:44:55.674Z,3.10
2018-08-31T23:47:26.099Z,3.00
2018-08-31T23:52:46.374Z,3.00
2018-08-31T23:55:17.520Z,3.40
2018-08-31T23:57:48.656Z,3.47
